Time;durP1;ratioP1;P1;durP2;ratioP2;P2;SDS_P1;SDS_P2;PMS_P1;PMS_P2;Temp;Humidity;BMP_temperature;BMP_pressure;BME280_temperature;BME280_humidity;BME280_pressure;Samples;Min_cycle;Max_cycle;Signal;HPM_P1;HPM_P2
2021/07/02 00:01:32;;;;;;;7.80;6.53;;;;;;;19.81;70.30;99758.79;1711677;82;26208;-75
2021/07/02 00:03:58;;;;;;;8.28;6.62;;;;;;;19.76;70.38;99751.70;1710043;82;26041;-75
2021/07/02 00:06:24;;;;;;;7.28;6.58;;;;;;;19.71;70.43;99753.41;1711272;81;26358;-77
2021/07/02 00:08:51;;;;;;;7.78;6.92;;;;;;;19.68;70.75;99754.17;1715100;82;27408;-74
2021/07/02 00:11:17;;;;;;;7.70;7.00;;;;;;;19.65;70.71;99759.05;1704075;81;25840;-73
2021/07/02 00:13:43;;;;;;;8.10;7.03;;;;;;;19.60;70.79;99767.08;1710702;82;25923;-74
2021/07/02 00:16:10;;;;;;;7.95;7.10;;;;;;;19.55;70.77;99764.10;1708614;82;25861;-74
2021/07/02 00:18:36;;;;;;;11.00;7.92;;;;;;;19.51;70.95;99766.61;1710378;82;25946;-80
2021/07/02 00:21:03;;;;;;;8.23;6.67;;;;;;;19.46;71.06;99765.03;1665377;84;27394;-77
2021/07/02 00:23:32;;;;;;;7.45;6.75;;;;;;;19.43;71.25;99763.62;1713477;81;25894;-74
2021/07/02 00:25:58;;;;;;;7.87;7.08;;;;;;;19.39;71.20;99768.52;1701048;82;25633;-74
2021/07/02 00:28:25;;;;;;;8.93;7.12;;;;;;;19.36;71.21;99763.79;1714119;81;25795;-73
2021/07/02 00:30:52;;;;;;;9.38;7.17;;;;;;;19.31;71.37;99761.41;1708354;82;26089;-74
2021/07/02 00:33:18;;;;;;;7.72;6.95;;;;;;;19.27;71.39;99771.54;1655652;84;27444;-73
2021/07/02 00:35:45;;;;;;;8.13;7.30;;;;;;;19.22;71.73;99764.48;1664935;84;25693;-74
2021/07/02 00:38:12;;;;;;;8.53;6.90;;;;;;;19.19;71.77;99769.94;1680103;84;25881;-78
2021/07/02 00:40:39;;;;;;;9.15;7.30;;;;;;;19.16;71.94;99774.21;1678338;84;26158;-73
2021/07/02 00:43:05;;;;;;;10.18;7.50;;;;;;;19.13;72.21;99776.33;1674441;83;25760;-74
2021/07/02 00:45:33;;;;;;;9.10;8.25;;;;;;;19.11;72.49;99775.16;1681932;84;27349;-73
2021/07/02 00:48:03;;;;;;;11.30;7.70;;;;;;;19.08;72.56;99778.05;1650524;84;25727;-74
2021/07/02 00:50:31;;;;;;;9.45;8.48;;;;;;;19.04;72.72;99781.36;1669099;82;25731;-74
2021/07/02 00:52:58;;;;;;;9.35;7.92;;;;;;;19.00;72.86;99781.34;1672221;84;25868;-74
2021/07/02 00:55:25;;;;;;;8.95;8.05;;;;;;;18.99;72.87;99778.97;1679189;84;25814;-74
2021/07/02 00:57:52;;;;;;;10.05;8.70;;;;;;;18.97;72.96;99782.68;1685693;82;27220;-73
2021/07/02 01:00:19;;;;;;;8.95;8.08;;;;;;;18.93;73.23;99775.77;1648367;85;25703;-73
2021/07/02 01:02:45;;;;;;;9.18;8.28;;;;;;;18.92;73.35;99771.47;1719178;81;26000;-73
2021/07/02 01:05:12;;;;;;;10.48;9.43;;;;;;;18.90;73.77;99768.33;1728680;81;25895;-73
2021/07/02 01:07:43;;;;;;;9.75;8.85;;;;;;;18.89;73.90;99768.70;1714459;82;25726;-73
2021/07/02 01:10:16;;;;;;;12.20;8.65;;;;;;;18.87;74.01;99764.19;1702159;81;27315;-73
2021/07/02 01:12:40;;;;;;;10.82;9.43;;;;;;;18.87;74.13;99770.45;1675226;84;25801;-72
2021/07/02 01:15:23;;;;;;;10.10;9.10;;;;;;;18.85;74.37;99772.78;1670382;83;25773;-71
2021/07/02 01:17:50;;;;;;;10.85;9.40;;;;;;;18.83;74.41;99773.72;1681756;83;27871;-74
2021/07/02 01:20:17;;;;;;;10.15;9.15;;;;;;;18.79;74.66;99772.88;1719124;81;25909;-73
2021/07/02 01:22:44;;;;;;;13.68;9.00;;;;;;;18.77;74.80;99770.52;1710782;81;27480;-73
2021/07/02 01:25:12;;;;;;;10.28;9.10;;;;;;;18.76;74.95;99770.89;1716345;81;27382;-73
2021/07/02 01:27:39;;;;;;;12.45;8.75;;;;;;;18.74;74.94;99778.70;1690284;83;25780;-74
2021/07/02 01:30:09;;;;;;;13.28;8.93;;;;;;;18.72;75.02;99772.82;1698575;82;25723;-74
2021/07/02 01:32:36;;;;;;;11.63;8.95;;;;;;;18.70;75.02;99779.27;1707832;82;25723;-74
2021/07/02 01:35:05;;;;;;;12.40;8.70;;;;;;;18.65;74.89;99779.02;1708372;82;27327;-73
2021/07/02 01:37:31;;;;;;;12.05;8.88;;;;;;;18.61;75.03;99776.24;1692861;82;25827;-74
2021/07/02 01:39:57;;;;;;;10.03;8.58;;;;;;;18.59;75.06;99775.84;1724048;81;25781;-73
2021/07/02 01:42:23;;;;;;;12.37;9.15;;;;;;;18.57;75.40;99777.36;1682785;82;25806;-73
2021/07/02 01:44:50;;;;;;;9.33;8.30;;;;;;;18.56;75.71;99777.95;1702128;82;25808;-73
2021/07/02 01:47:16;;;;;;;9.23;8.35;;;;;;;18.53;75.53;99781.44;1707740;82;27320;-73
2021/07/02 01:49:43;;;;;;;11.03;8.13;;;;;;;18.50;75.46;99781.40;1694614;82;25911;-72
2021/07/02 01:52:10;;;;;;;9.00;8.13;;;;;;;18.47;75.61;99781.55;1698412;82;25925;-73
2021/07/02 01:54:37;;;;;;;9.08;8.18;;;;;;;18.44;75.75;99782.33;1706349;81;25780;-72
2021/07/02 01:57:09;;;;;;;9.05;7.72;;;;;;;18.40;75.75;99783.62;1697927;82;25785;-72
2021/07/02 01:59:35;;;;;;;9.28;8.38;;;;;;;18.39;75.74;99786.73;1706286;82;27334;-73
2021/07/02 02:02:02;;;;;;;11.63;7.92;;;;;;;18.36;75.90;99791.03;1720450;82;27304;-71
2021/07/02 02:04:28;;;;;;;12.35;7.65;;;;;;;18.33;75.96;99786.88;1702823;81;25829;-71
2021/07/02 02:06:55;;;;;;;11.53;7.87;;;;;;;18.32;76.12;99790.21;1711481;82;25681;-72
2021/07/02 02:09:21;;;;;;;9.73;7.55;;;;;;;18.31;76.27;99784.52;1692037;82;25843;-72
2021/07/02 02:11:47;;;;;;;8.73;7.67;;;;;;;18.28;76.17;99791.52;1687440;82;27514;-72
2021/07/02 02:14:14;;;;;;;9.45;7.67;;;;;;;18.25;76.27;99793.66;1708795;81;25733;-72
2021/07/02 02:16:41;;;;;;;10.58;7.60;;;;;;;18.25;76.39;99799.69;1663361;84;25720;-71
2021/07/02 02:19:08;;;;;;;11.80;7.87;;;;;;;18.22;76.32;99794.39;1678260;84;25671;-72
2021/07/02 02:21:34;;;;;;;7.85;7.15;;;;;;;18.20;76.53;99794.54;1679665;84;26052;-72
2021/07/02 02:24:01;;;;;;;13.28;7.72;;;;;;;18.17;76.64;99792.57;1671784;84;27783;-72
2021/07/02 02:26:27;;;;;;;10.90;8.20;;;;;;;18.14;76.69;99795.45;1715651;81;25909;-73
2021/07/02 02:28:54;;;;;;;8.20;7.40;;;;;;;18.13;76.82;99797.20;1719510;81;25813;-72
2021/07/02 02:31:21;;;;;;;8.80;7.90;;;;;;;18.10;77.07;99796.78;1704218;82;26852;-73
2021/07/02 02:33:47;;;;;;;8.98;8.13;;;;;;;18.09;77.15;99797.16;1719453;82;25653;-73
2021/07/02 02:36:14;;;;;;;9.70;7.78;;;;;;;18.07;77.33;99794.01;1706122;82;27497;-73
2021/07/02 02:38:41;;;;;;;11.05;8.05;;;;;;;18.05;77.32;99800.44;1717062;81;25739;-71
2021/07/02 02:41:07;;;;;;;9.95;8.18;;;;;;;18.01;77.58;99794.89;1715930;82;25778;-72
2021/07/02 02:43:33;;;;;;;8.90;8.03;;;;;;;17.99;77.40;99786.86;1705216;82;25672;-72
2021/07/02 02:46:00;;;;;;;8.33;7.40;;;;;;;17.97;77.60;99791.33;1703565;82;25879;-72
2021/07/02 02:48:27;;;;;;;8.38;7.58;;;;;;;17.94;77.49;99781.13;1707009;81;27438;-72
2021/07/02 02:50:54;;;;;;;8.95;7.80;;;;;;;17.93;77.58;99785.04;1701735;82;25758;-73
2021/07/02 02:53:20;;;;;;;9.40;8.23;;;;;;;17.91;77.69;99787.34;1709215;82;25698;-73
2021/07/02 02:55:46;;;;;;;9.63;8.10;;;;;;;17.88;77.64;99787.52;1720579;82;25806;-72
2021/07/02 02:58:13;;;;;;;9.35;8.20;;;;;;;17.87;77.68;99792.77;1706192;81;25830;-73
2021/07/02 03:00:39;;;;;;;12.63;8.35;;;;;;;17.87;78.13;99793.35;1717386;81;27386;-73
2021/07/02 03:03:05;;;;;;;8.73;7.60;;;;;;;17.86;77.96;99795.84;1701465;82;25735;-73
2021/07/02 03:05:32;;;;;;;8.90;7.67;;;;;;;17.84;77.88;99793.50;1714453;82;25750;-72
2021/07/02 03:07:59;;;;;;;9.03;7.47;;;;;;;17.84;78.15;99800.34;1710692;81;25869;-71
2021/07/02 03:10:26;;;;;;;8.75;7.62;;;;;;;17.84;78.18;99791.32;1709802;81;25783;-73
2021/07/02 03:12:52;;;;;;;8.63;7.58;;;;;;;17.82;78.25;99792.28;1711873;81;27495;-73
2021/07/02 03:15:18;;;;;;;9.58;7.75;;;;;;;17.84;78.45;99792.69;1704610;81;25665;-73
2021/07/02 03:17:45;;;;;;;14.38;8.50;;;;;;;17.83;78.45;99789.77;1699659;82;25452;-73
2021/07/02 03:20:12;;;;;;;9.60;8.23;;;;;;;17.84;78.44;99789.39;1707646;82;25607;-73
2021/07/02 03:22:41;;;;;;;10.78;8.18;;;;;;;17.84;78.31;99792.12;1706870;81;26528;-72
2021/07/02 03:25:10;;;;;;;9.73;8.70;;;;;;;17.83;78.36;99791.12;1717802;81;27306;-72
2021/07/02 03:27:38;;;;;;;8.93;8.03;;;;;;;17.84;78.26;99794.05;1710849;82;25372;-72
2021/07/02 03:30:08;;;;;;;9.50;8.00;;;;;;;17.81;78.11;99797.53;1709574;82;26142;-72
2021/07/02 03:32:35;;;;;;;9.73;8.73;;;;;;;17.78;78.18;99790.09;1662928;84;26570;-72
2021/07/02 03:35:03;;;;;;;9.75;8.15;;;;;;;17.75;78.39;99786.13;1714495;81;25616;-72
2021/07/02 03:37:30;;;;;;;9.93;7.75;;;;;;;17.74;78.45;99790.81;1666974;82;27345;-73
2021/07/02 03:39:56;;;;;;;9.28;8.13;;;;;;;17.75;78.68;99782.02;1713069;81;25744;-74
2021/07/02 03:42:23;;;;;;;9.68;8.55;;;;;;;17.76;78.80;99786.91;1717922;81;25805;-72
2021/07/02 03:44:50;;;;;;;10.63;8.30;;;;;;;17.76;78.76;99782.80;1716338;81;25803;-72
2021/07/02 03:47:16;;;;;;;9.50;8.55;;;;;;;17.74;78.67;99784.53;1711059;81;25873;-73
2021/07/02 03:49:44;;;;;;;10.72;8.30;;;;;;;17.73;78.77;99778.29;1712666;82;27543;-72
2021/07/02 03:52:10;;;;;;;10.20;8.65;;;;;;;17.73;78.75;99779.66;1648367;85;26336;-73
2021/07/02 03:54:36;;;;;;;12.45;8.63;;;;;;;17.74;78.85;99783.98;1648597;84;25858;-72
2021/07/02 03:57:19;;;;;;;12.47;10.38;;;;;;;17.74;79.06;99774.41;1685590;82;25719;-72
2021/07/02 03:59:49;;;;;;;12.40;8.83;;;;;;;17.75;79.08;99777.92;1630698;85;26016;-73
2021/07/02 04:02:18;;;;;;;9.20;8.33;;;;;;;17.75;79.14;99782.02;1702272;82;25772;-72
2021/07/02 04:04:44;;;;;;;10.63;9.10;;;;;;;17.77;79.30;99783.80;1700386;82;25709;-72
2021/07/02 04:07:13;;;;;;;9.98;8.73;;;;;;;17.78;79.29;99782.66;1703230;82;25957;-72
2021/07/02 04:09:40;;;;;;;10.95;9.40;;;;;;;17.81;79.40;99784.66;1682718;83;25752;-72
2021/07/02 04:12:09;;;;;;;11.57;10.20;;;;;;;17.82;79.31;99779.97;1706960;82;25740;-71
2021/07/02 04:14:36;;;;;;;10.93;9.37;;;;;;;17.83;79.19;99778.23;1640906;84;27467;-72
2021/07/02 04:17:03;;;;;;;10.40;8.93;;;;;;;17.83;79.32;99769.25;1682152;83;25895;-73
2021/07/02 04:19:30;;;;;;;11.78;10.25;;;;;;;17.88;79.67;99774.42;1687089;83;25760;-73
2021/07/02 04:21:58;;;;;;;12.03;9.23;;;;;;;17.91;79.71;99778.57;1685890;82;25772;-72
2021/07/02 04:24:27;;;;;;;12.20;9.95;;;;;;;17.97;79.75;99785.09;1680338;84;25928;-72
2021/07/02 04:26:52;;;;;;;10.55;9.28;;;;;;;17.99;79.53;99790.97;1666624;83;29481;-73
2021/07/02 04:29:19;;;;;;;11.20;9.60;;;;;;;18.02;79.75;99796.48;1670777;83;25924;-72
2021/07/02 04:31:45;;;;;;;10.23;9.13;;;;;;;18.06;79.66;99793.79;1673270;83;25816;-72
2021/07/02 04:34:12;;;;;;;11.48;9.15;;;;;;;18.07;79.71;99795.37;1665408;84;25824;-72
2021/07/02 04:36:38;;;;;;;12.93;9.88;;;;;;;18.11;79.76;99800.30;1672174;83;25695;-72
2021/07/02 04:39:05;;;;;;;10.20;9.15;;;;;;;18.13;79.68;99798.56;1653217;84;27425;-71
2021/07/02 04:41:31;;;;;;;10.23;9.15;;;;;;;18.16;79.68;99801.94;1679094;83;26635;-71
2021/07/02 04:43:58;;;;;;;13.00;10.05;;;;;;;18.19;79.64;99801.97;1665689;83;26082;-72
2021/07/02 04:46:25;;;;;;;10.90;9.75;;;;;;;18.23;79.69;99797.31;1695189;83;25743;-72
2021/07/02 04:48:51;;;;;;;10.72;9.60;;;;;;;18.27;79.77;99791.91;1656849;84;25858;-71
2021/07/02 04:51:18;;;;;;;12.70;10.35;;;;;;;18.33;79.78;99798.61;1689054;83;27329;-71
2021/07/02 04:53:44;;;;;;;12.63;10.68;;;;;;;18.38;79.56;99793.39;1682986;83;25764;-72
2021/07/02 04:56:13;;;;;;;14.70;10.23;;;;;;;18.44;79.66;99800.12;1690588;82;25984;-71
2021/07/02 04:58:42;;;;;;;11.10;9.98;;;;;;;18.49;79.47;99803.89;1704281;81;25898;-72
2021/07/02 05:01:12;;;;;;;12.43;10.85;;;;;;;18.52;79.39;99816.81;1701101;82;25682;-71
2021/07/02 05:03:38;;;;;;;;;;;;;;;18.55;78.98;99822.92;1710957;82;27343;-72
2021/07/02 05:06:07;;;;;;;11.22;9.98;;;;;;;18.58;78.89;99828.25;1661695;84;26046;-72
2021/07/02 05:08:34;;;;;;;13.32;10.50;;;;;;;18.57;78.63;99824.70;1716583;82;26293;-71
2021/07/02 05:11:00;;;;;;;13.22;10.35;;;;;;;18.59;78.58;99839.39;1706389;82;26576;-72
2021/07/02 05:13:26;;;;;;;12.18;10.85;;;;;;;18.56;78.14;99838.20;1668422;83;26556;-70
2021/07/02 05:15:53;;;;;;;13.88;11.57;;;;;;;18.52;78.15;99839.31;1689020;82;27362;-71
2021/07/02 05:18:20;;;;;;;16.50;10.93;;;;;;;18.50;78.02;99839.69;1682146;83;25765;-73
2021/07/02 05:20:47;;;;;;;13.13;11.73;;;;;;;18.46;78.24;99843.75;1672121;84;25879;-72
2021/07/02 05:23:13;;;;;;;16.50;13.43;;;;;;;18.51;78.89;99841.27;1693769;81;25783;-73
2021/07/02 05:25:40;;;;;;;19.75;16.32;;;;;;;18.57;78.88;99834.28;1686469;82;25758;-73
2021/07/02 05:28:07;;;;;;;14.47;12.47;;;;;;;18.68;79.40;99827.58;1688235;82;27329;-72
2021/07/02 05:30:33;;;;;;;15.95;12.70;;;;;;;18.78;79.35;99832.38;1709718;78;26274;-65
2021/07/02 05:32:59;;;;;;;20.10;14.53;;;;;;;18.88;79.60;99830.91;1755885;79;26651;-64
2021/07/02 05:35:26;;;;;;;16.93;11.93;;;;;;;19.00;79.35;99836.14;1805093;77;25769;-64
2021/07/02 05:37:52;;;;;;;16.27;12.18;;;;;;;19.11;79.28;99837.61;1788653;77;25699;-67
2021/07/02 05:40:19;;;;;;;17.20;12.30;;;;;;;19.17;78.57;99841.59;1819703;77;27330;-67
2021/07/02 05:42:46;;;;;;;14.73;12.78;;;;;;;19.19;77.91;99844.73;1791510;78;25412;-68
2021/07/02 05:45:13;;;;;;;18.75;13.25;;;;;;;19.21;77.52;99833.39;1797132;79;25884;-67
2021/07/02 05:47:52;;;;;;;15.93;12.70;;;;;;;19.19;77.03;99836.51;1811856;77;26863;-67
2021/07/02 05:50:15;;;;;;;16.60;13.18;;;;;;;19.18;76.91;99841.77;1804814;77;25632;-67
2021/07/02 05:52:42;;;;;;;14.78;13.32;;;;;;;19.18;76.84;99843.14;1807119;77;27364;-66
2021/07/02 05:55:10;;;;;;;15.60;12.88;;;;;;;19.22;76.94;99846.72;1803535;78;26356;-67
2021/07/02 05:57:36;;;;;;;15.43;12.65;;;;;;;19.23;76.87;99848.28;1785637;78;25770;-66
2021/07/02 06:00:05;;;;;;;15.20;13.62;;;;;;;19.23;76.66;99846.91;1808154;78;25880;-67
2021/07/02 06:02:32;;;;;;;17.57;13.93;;;;;;;19.23;76.18;99855.13;1808424;78;25755;-67
2021/07/02 06:04:58;;;;;;;15.18;13.65;;;;;;;19.14;75.80;99860.16;1799271;77;27303;-67
2021/07/02 06:07:24;;;;;;;17.85;14.53;;;;;;;19.09;75.71;99852.27;1783957;78;25901;-67
2021/07/02 06:09:50;;;;;;;17.80;14.63;;;;;;;19.09;75.71;99855.02;1795511;77;25732;-67
2021/07/02 06:12:17;;;;;;;17.95;14.68;;;;;;;19.06;75.81;99857.14;1785529;78;26320;-67
2021/07/02 06:14:43;;;;;;;16.48;14.87;;;;;;;19.00;75.48;99853.15;1782496;78;26511;-67
2021/07/02 06:17:12;;;;;;;17.95;14.68;;;;;;;18.99;75.82;99851.00;1776699;79;26504;-68
2021/07/02 06:19:39;;;;;;;16.32;14.73;;;;;;;19.06;76.28;99854.39;1779347;79;26036;-67
2021/07/02 06:22:05;;;;;;;18.07;15.13;;;;;;;19.14;76.42;99847.05;1781718;78;25870;-68
2021/07/02 06:24:32;;;;;;;16.57;14.83;;;;;;;19.23;76.40;99852.39;1746159;80;25711;-67
2021/07/02 06:26:59;;;;;;;16.75;14.78;;;;;;;19.31;76.13;99848.36;1794993;77;26533;-67
2021/07/02 06:29:25;;;;;;;16.42;14.65;;;;;;;19.39;75.89;99854.89;1813367;77;27295;-67
2021/07/02 06:31:52;;;;;;;17.57;14.95;;;;;;;19.44;75.39;99848.84;1796946;77;25859;-67
2021/07/02 06:34:18;;;;;;;17.07;14.70;;;;;;;19.47;74.89;99853.58;1780713;77;25960;-68
2021/07/02 06:36:44;;;;;;;17.00;14.33;;;;;;;19.47;74.74;99861.80;1802278;77;26692;-67
2021/07/02 06:39:11;;;;;;;16.12;14.25;;;;;;;19.45;74.37;99859.44;1801964;78;26287;-67
2021/07/02 06:41:37;;;;;;;16.30;14.55;;;;;;;19.46;74.61;99858.84;1808424;77;27375;-67
2021/07/02 06:44:05;;;;;;;17.65;14.47;;;;;;;19.49;74.66;99858.88;1810568;77;25641;-67
2021/07/02 06:46:33;;;;;;;16.50;14.70;;;;;;;19.52;73.94;99858.71;1812362;77;25784;-67
2021/07/02 06:49:05;;;;;;;15.45;13.85;;;;;;;19.50;73.90;99863.80;1809107;77;25846;-67
2021/07/02 06:51:30;;;;;;;14.38;12.93;;;;;;;19.54;73.83;99855.77;1807992;77;25788;-68
2021/07/02 06:53:57;;;;;;;17.00;13.40;;;;;;;19.61;74.02;99852.30;1812953;78;27302;-67
2021/07/02 06:56:23;;;;;;;15.78;12.70;;;;;;;19.71;74.04;99850.81;1782395;78;25973;-67
2021/07/02 06:58:50;;;;;;;16.90;13.25;;;;;;;19.88;74.36;99847.41;1802839;78;25821;-67
2021/07/02 07:01:16;;;;;;;15.32;13.53;;;;;;;20.05;74.22;99851.44;1817547;77;26423;-67
2021/07/02 07:03:43;;;;;;;17.25;13.10;;;;;;;20.22;73.93;99849.95;1795312;79;26080;-68
2021/07/02 07:06:10;;;;;;;13.75;12.30;;;;;;;20.40;74.11;99846.48;1808430;77;27294;-66
2021/07/02 07:08:36;;;;;;;17.27;14.30;;;;;;;20.48;72.85;99848.89;1813299;77;26075;-66
2021/07/02 07:11:03;;;;;;;15.95;13.30;;;;;;;20.53;72.78;99846.34;1809233;77;26461;-65
2021/07/02 07:13:29;;;;;;;14.58;12.98;;;;;;;20.65;72.34;99846.61;1815999;77;25792;-65
2021/07/02 07:15:56;;;;;;;15.10;12.60;;;;;;;20.63;70.85;99847.59;1811834;77;26545;-66
2021/07/02 07:18:22;;;;;;;14.47;13.00;;;;;;;20.58;71.75;99841.06;1808325;77;27295;-65
2021/07/02 07:20:49;;;;;;;13.78;12.07;;;;;;;20.59;71.43;99843.43;1786057;78;25881;-65
2021/07/02 07:23:16;;;;;;;12.37;11.15;;;;;;;20.62;70.83;99844.59;1806624;77;25739;-65
2021/07/02 07:25:43;;;;;;;13.22;11.93;;;;;;;20.56;70.39;99836.55;1788070;77;25936;-65
2021/07/02 07:28:09;;;;;;;12.40;10.88;;;;;;;20.57;70.57;99838.11;1814289;77;25802;-67
2021/07/02 07:30:36;;;;;;;16.42;11.65;;;;;;;20.56;70.42;99834.59;1812315;77;27357;-67
2021/07/02 07:33:03;;;;;;;12.58;11.25;;;;;;;20.53;70.26;99832.61;1808685;77;27275;-66
2021/07/02 07:35:34;;;;;;;13.30;12.00;;;;;;;20.52;70.01;99831.05;1808872;77;25695;-67
2021/07/02 07:37:58;;;;;;;12.35;11.20;;;;;;;20.48;69.94;99826.92;1801266;77;26404;-67
2021/07/02 07:40:29;;;;;;;12.98;11.57;;;;;;;20.45;69.90;99823.57;1816867;77;25644;-67
2021/07/02 07:42:56;;;;;;;13.98;11.78;;;;;;;20.43;70.14;99817.69;1784236;78;27385;-67
2021/07/02 07:45:23;;;;;;;14.05;12.73;;;;;;;20.44;70.11;99820.61;1805731;77;25781;-67
2021/07/02 07:47:50;;;;;;;15.53;12.68;;;;;;;20.43;69.92;99814.13;1817179;77;25813;-67
2021/07/02 07:50:23;;;;;;;15.48;13.98;;;;;;;20.41;69.88;99819.23;1811066;77;25662;-67
2021/07/02 07:52:51;;;;;;;15.05;13.65;;;;;;;20.36;69.74;99810.77;1781580;77;25851;-67
2021/07/02 07:55:14;;;;;;;16.02;14.40;;;;;;;20.37;69.59;99808.83;1815838;77;27368;-66
2021/07/02 07:57:40;;;;;;;15.60;14.00;;;;;;;20.40;70.25;99808.84;1806020;77;25817;-67
2021/07/02 08:00:09;;;;;;;17.27;14.63;;;;;;;20.51;69.97;99809.64;1813288;77;25866;-67
2021/07/02 08:02:35;;;;;;;17.87;15.10;;;;;;;20.56;69.76;99820.84;1787886;78;26415;-67
2021/07/02 08:05:03;;;;;;;17.42;15.58;;;;;;;20.63;69.77;99821.48;1817319;77;25674;-67
2021/07/02 08:07:38;;;;;;;20.55;17.52;;;;;;;20.73;69.49;99812.48;1785321;78;27251;-67
2021/07/02 08:10:11;;;;;;;20.57;17.87;;;;;;;20.74;68.67;99819.56;1810894;77;25794;-67
2021/07/02 08:12:40;;;;;;;22.90;19.90;;;;;;;20.79;69.07;99822.49;1799580;77;25783;-67
2021/07/02 08:15:09;;;;;;;25.77;19.57;;;;;;;20.80;68.45;99806.22;1797068;78;25660;-66
2021/07/02 08:17:37;;;;;;;26.82;19.55;;;;;;;20.84;68.92;99805.62;1796421;77;25992;-67
2021/07/02 08:20:07;;;;;;;21.87;18.23;;;;;;;21.03;69.48;99806.64;1769955;79;27332;-67
2021/07/02 08:22:35;;;;;;;20.50;18.30;;;;;;;21.24;69.05;99811.34;1778385;79;25766;-67
2021/07/02 08:25:01;;;;;;;21.27;18.92;;;;;;;21.33;67.98;99812.92;1758725;79;26585;-67
2021/07/02 08:27:28;;;;;;;27.37;20.10;;;;;;;21.37;67.40;99820.59;1791172;77;25848;-67
2021/07/02 08:29:56;;;;;;;23.32;18.90;;;;;;;21.34;66.62;99823.53;1805808;77;25737;-68
2021/07/02 08:32:22;;;;;;;24.72;20.50;;;;;;;21.22;66.78;99827.45;1794796;79;27306;-67
2021/07/02 08:34:49;;;;;;;26.77;20.52;;;;;;;21.17;66.42;99838.07;1780707;78;25687;-67
2021/07/02 08:37:15;;;;;;;29.37;22.87;;;;;;;21.03;66.12;99843.75;1748286;79;25705;-67
2021/07/02 08:39:41;;;;;;;25.20;21.77;;;;;;;20.86;66.20;99842.55;1792559;78;25688;-67
2021/07/02 08:42:09;;;;;;;24.72;21.05;;;;;;;20.76;66.45;99846.66;1719665;79;25796;-67
2021/07/02 08:44:36;;;;;;;31.30;25.02;;;;;;;20.68;66.88;99852.11;1757490;79;27416;-73
2021/07/02 08:47:03;;;;;;;26.70;21.62;;;;;;;20.65;67.07;99857.03;1795261;79;25925;-74
2021/07/02 08:49:32;;;;;;;26.02;21.25;;;;;;;20.68;67.41;99852.70;1730252;80;25951;-74
2021/07/02 08:51:59;;;;;;;26.93;20.77;;;;;;;20.68;67.33;99862.32;1768377;78;26360;-75
2021/07/02 08:54:26;;;;;;;27.00;21.42;;;;;;;20.63;67.15;99856.61;1747831;78;25902;-75
2021/07/02 08:56:59;;;;;;;29.15;21.95;;;;;;;20.54;66.99;99858.91;1785461;79;28086;-73
2021/07/02 08:59:28;;;;;;;31.75;22.40;;;;;;;20.56;67.42;99857.94;1773817;79;26047;-76
2021/07/02 09:01:56;;;;;;;26.30;22.32;;;;;;;20.61;67.72;99861.68;1782230;79;25640;-75
2021/07/02 09:04:29;;;;;;;30.52;23.52;;;;;;;20.76;67.76;99860.39;1758106;79;26316;-76
2021/07/02 09:07:08;;;;;;;29.37;23.98;;;;;;;20.82;66.97;99865.13;1747220;79;25766;-76
2021/07/02 09:09:57;;;;;;;26.73;21.60;;;;;;;20.88;67.38;99866.90;1741487;80;27397;-76
2021/07/02 09:12:30;;;;;;;30.17;22.85;;;;;;;20.90;66.42;99872.78;1750767;79;25724;-76
2021/07/02 09:15:10;;;;;;;27.62;22.30;;;;;;;20.82;66.21;99867.88;1749010;80;25818;-76
2021/07/02 09:17:47;;;;;;;28.70;22.73;;;;;;;20.86;66.68;99865.91;1768235;78;25862;-75
2021/07/02 09:20:22;;;;;;;27.37;21.60;;;;;;;21.01;67.26;99866.73;1766690;78;26313;-75
2021/07/02 09:22:59;;;;;;;23.65;21.05;;;;;;;21.25;67.60;99864.41;1766536;79;27928;-74
2021/07/02 09:25:37;;;;;;;28.83;20.82;;;;;;;21.40;67.11;99870.11;1780537;78;25446;-68
2021/07/02 09:28:12;;;;;;;24.05;20.43;;;;;;;21.50;66.31;99873.27;1790852;77;25701;-76
2021/07/02 09:30:42;;;;;;;30.80;21.80;;;;;;;21.53;65.44;99876.02;1795876;78;26025;-76
2021/07/02 09:33:13;;;;;;;22.67;19.73;;;;;;;21.56;65.61;99879.36;1802423;77;25813;-72
2021/07/02 09:35:45;;;;;;;24.98;20.50;;;;;;;21.67;65.44;99882.70;1793855;78;27981;-73
2021/07/02 09:38:16;;;;;;;23.22;19.87;;;;;;;21.67;64.76;99885.45;1798210;78;26358;-71
2021/07/02 09:40:48;;;;;;;26.80;20.52;;;;;;;21.61;64.43;99890.57;1790753;78;26467;-71
2021/07/02 09:43:18;;;;;;;21.55;18.85;;;;;;;21.58;64.42;99900.98;1814406;77;25741;-73
2021/07/02 09:45:50;;;;;;;26.55;20.55;;;;;;;21.52;64.35;99897.84;1812669;77;25893;-76
2021/07/02 09:48:26;;;;;;;24.72;19.67;;;;;;;21.49;64.33;99901.37;1812026;77;28062;-76
2021/07/02 09:50:59;;;;;;;25.77;19.82;;;;;;;21.42;64.15;99899.38;1807094;77;25715;-74
2021/07/02 09:53:30;;;;;;;23.52;18.75;;;;;;;21.27;63.92;99899.95;1801394;78;25814;-75
2021/07/02 09:56:00;;;;;;;23.80;18.82;;;;;;;21.17;64.23;99897.97;1800788;77;26529;-76
2021/07/02 09:58:29;;;;;;;26.55;21.27;;;;;;;21.11;64.19;99901.50;1810424;77;25647;-76
2021/07/02 10:01:01;;;;;;;23.35;19.82;;;;;;;21.04;64.46;99903.64;1795737;78;27311;-76
2021/07/02 10:03:38;;;;;;;25.88;19.87;;;;;;;20.99;64.72;99905.39;1796793;78;25910;-72
2021/07/02 10:06:21;;;;;;;25.75;20.02;;;;;;;20.92;64.36;99903.41;1791080;78;25737;-75
2021/07/02 10:08:48;;;;;;;25.72;18.90;;;;;;;20.81;64.63;99899.27;1786112;78;26583;-75
2021/07/02 10:11:14;;;;;;;23.42;20.02;;;;;;;20.77;64.45;99897.67;1758088;79;25856;-76
2021/07/02 10:13:49;;;;;;;24.72;19.92;;;;;;;20.68;64.92;99895.30;1812239;77;27300;-76
2021/07/02 10:16:16;;;;;;;25.52;20.23;;;;;;;20.71;64.96;99889.81;1808896;77;25904;-74
2021/07/02 10:18:52;;;;;;;24.35;18.73;;;;;;;20.78;65.52;99891.80;1821384;77;25856;-75
2021/07/02 10:21:23;;;;;;;22.58;20.12;;;;;;;20.90;65.57;99891.43;1817256;77;25832;-75
2021/07/02 10:23:54;;;;;;;23.90;19.52;;;;;;;21.10;65.83;99882.84;1800517;77;25740;-75
2021/07/02 10:26:25;;;;;;;23.05;18.75;;;;;;;21.38;66.10;99880.69;1803016;77;27319;-73
2021/07/02 10:28:52;;;;;;;23.42;19.92;;;;;;;21.61;65.72;99880.94;1809277;78;25707;-74
2021/07/02 10:31:19;;;;;;;24.05;18.23;;;;;;;21.87;65.42;99878.95;1810014;78;25772;-75
2021/07/02 10:33:49;;;;;;;22.10;18.67;;;;;;;22.12;65.19;99874.16;1757043;78;25810;-76
2021/07/02 10:36:18;;;;;;;23.90;19.35;;;;;;;22.31;63.78;99864.69;1814515;77;25838;-75
2021/07/02 10:38:52;;;;;;;24.23;19.33;;;;;;;22.42;62.98;99871.52;1807377;77;27302;-74
2021/07/02 10:41:26;;;;;;;23.38;18.85;;;;;;;22.52;62.83;99878.95;1813229;77;25823;-77
2021/07/02 10:44:11;;;;;;;26.15;19.45;;;;;;;22.59;62.16;99882.88;1815664;77;25858;-76
2021/07/02 10:46:51;;;;;;;24.75;19.37;;;;;;;22.67;61.97;99887.95;1811892;77;25826;-75
2021/07/02 10:49:18;;;;;;;22.52;18.70;;;;;;;22.63;61.62;99888.57;1801040;77;26307;-75
2021/07/02 10:51:53;;;;;;;21.93;18.12;;;;;;;22.60;61.60;99885.84;1808392;77;27312;-75
2021/07/02 10:54:26;;;;;;;25.45;19.30;;;;;;;22.61;61.27;99891.52;1811206;77;25939;-71
2021/07/02 10:57:00;;;;;;;20.80;18.20;;;;;;;22.59;61.34;99887.02;1791849;78;25766;-68
2021/07/02 10:59:44;;;;;;;20.65;18.35;;;;;;;22.51;61.14;99896.69;1807642;77;26377;-68
2021/07/02 11:02:19;;;;;;;24.35;19.05;;;;;;;22.51;61.76;99884.89;1805888;77;25742;-67
2021/07/02 11:04:50;;;;;;;24.55;18.65;;;;;;;22.59;61.68;99883.66;1802131;77;27243;-67
2021/07/02 11:07:25;;;;;;;23.20;20.52;;;;;;;22.66;61.48;99880.89;1803903;77;25671;-66
2021/07/02 11:10:02;;;;;;;21.15;17.52;;;;;;;22.71;61.47;99885.17;1797086;77;25735;-67
2021/07/02 11:12:51;;;;;;;21.02;18.00;;;;;;;22.87;61.72;99875.06;1818160;77;26405;-67
2021/07/02 11:15:18;;;;;;;21.80;18.00;;;;;;;23.09;61.46;99867.47;1801514;77;26129;-67
2021/07/02 11:17:49;;;;;;;22.45;17.45;;;;;;;23.48;62.24;99868.54;1813977;77;27376;-68
2021/07/02 11:20:24;;;;;;;21.62;18.02;;;;;;;23.76;60.54;99869.46;1806259;78;27146;-68
2021/07/02 11:23:12;;;;;;;22.05;16.70;;;;;;;23.88;60.31;99868.20;1811867;77;26345;-66
2021/07/02 11:25:51;;;;;;;19.42;16.57;;;;;;;24.04;59.60;99867.62;1803772;77;27006;-68
2021/07/02 11:28:36;;;;;;;23.05;17.02;;;;;;;24.14;58.91;99875.01;1802874;78;26078;-68